Etusivu
METAR-TAF:

METAR-TAF

Lentoasemat :

South Wood County Airport (Alexander Field)

Wisconsin Rapids, Wisconsin, Yhdysvallat

Leveyspiiri: 44-21-33N, Pituuspiiri: 089-50-13W, korkeus merenpinnasta: 311 m

Tämänhetkinen sää

Tämä raportti tehtiin 23 minuuttia sitten, kello 21.04 UTC
Tuuli 5 kn idästä/koillisesta
Lämpötila -1°C
Kosteus 86%
Ilmanpaine 1017 hPa
Näkyvyys: 4.8 km
Hajonneita pilviä 1000 ft:n korkeudessa
Hajonneita pilviä 1400 ft:n korkeudessa
Pilvistä 2000 ft:n korkeudessa
heikkoa lumisadetta, utua

METAR: KISW 232104Z AUTO 07005KT 3SM -SN BR BKN010 BKN014 OVC020 M01/M03 A3002 RMK AO2 P0000 T10061028

Aika: 15:27 (21:27 UTC)


TAF: puuttuu

Säähavainnot ja -ennusteet yli 4000 lentoasemalta (METAR- ja TAF-raportit).

Käytössä olevat sääasemat on merkitty karttaan keltaisilla ja punaisilla pisteillä.

Aseta hiiri pisteen päälle nähdäksesi sääaseman nimen.

Klikkaa sitten nähdäksesi säähavainnot ja -ennusteet.

Kartan vaihtaminen: klikkaa mustalla rastilla varustettuja vihreitä pisteitä, niin voit zoomata sisään; viivalla varustettua vihreää pistettä, niin voit zoomata ulos tai vihreitä nuolia, niin pääset viereisille kartoille.


METAR-TAF: